Time;durP1;ratioP1;P1;durP2;ratioP2;P2;SDS_P1;SDS_P2;PMS_P1;PMS_P2;Temp;Humidity;BMP_temperature;BMP_pressure;BME280_temperature;BME280_humidity;BME280_pressure;Samples;Min_cycle;Max_cycle;Signal;HPM_P1;HPM_P2
2021/04/30 00:02:01;;;;;;;;;;;11.00;1.00;;;;;;5012843;28;19985;-69
2021/04/30 00:04:27;;;;;;;;;;;11.10;1.00;;;;;;5011859;28;20279;-67
2021/04/30 00:06:52;;;;;;;;;;;11.10;1.00;;;;;;5011928;28;19909;-67
2021/04/30 00:09:18;;;;;;;;;;;11.10;1.00;;;;;;5010836;28;19913;-68
2021/04/30 00:11:43;;;;;;;;;;;11.20;1.00;;;;;;5012705;28;20323;-65
2021/04/30 00:14:09;;;;;;;;;;;11.20;1.00;;;;;;5012346;28;19936;-67
2021/04/30 00:16:39;;;;;;;;;;;11.10;1.00;;;;;;5012417;28;19940;-69
2021/04/30 00:19:05;;;;;;;;;;;11.10;1.00;;;;;;5010755;28;19955;-70
2021/04/30 00:21:30;;;;;;;;;;;11.10;1.00;;;;;;5011815;28;20008;-69
2021/04/30 00:23:57;;;;;;;;;;;11.10;1.00;;;;;;5010776;28;19917;-66
2021/04/30 00:26:23;;;;;;;;;;;11.10;1.00;;;;;;5011416;28;19909;-66
2021/04/30 00:28:48;;;;;;;;;;;11.10;1.00;;;;;;5011641;28;19916;-68
2021/04/30 00:31:17;;;;;;;;;;;11.10;1.00;;;;;;5011232;28;20008;-67
2021/04/30 00:33:42;;;;;;;;;;;11.10;1.00;;;;;;5010559;28;19996;-67
2021/04/30 00:36:07;;;;;;;;;;;11.10;1.00;;;;;;5011223;28;19956;-67
2021/04/30 00:38:33;;;;;;;;;;;11.10;1.00;;;;;;5010221;28;20382;-67
2021/04/30 00:40:58;;;;;;;;;;;11.00;1.00;;;;;;5010430;28;19916;-67
2021/04/30 00:43:24;;;;;;;;;;;11.00;1.00;;;;;;5011863;28;19914;-67
2021/04/30 00:45:52;;;;;;;;;;;11.00;1.00;;;;;;5011790;28;19913;-68
2021/04/30 00:48:19;;;;;;;;;;;10.90;1.00;;;;;;5010693;28;19910;-68
2021/04/30 00:50:44;;;;;;;;;;;10.90;1.00;;;;;;5010537;28;19925;-69
2021/04/30 00:53:09;;;;;;;;;;;10.80;1.00;;;;;;5009828;28;19924;-69
2021/04/30 00:55:37;;;;;;;;;;;10.80;1.00;;;;;;5011432;28;19914;-68
2021/04/30 00:58:03;;;;;;;;;;;10.70;1.00;;;;;;5011004;28;19917;-69
2021/04/30 01:00:30;;;;;;;;;;;10.70;1.00;;;;;;5010325;28;20338;-68
2021/04/30 01:02:56;;;;;;;;;;;10.70;1.00;;;;;;5010578;28;20056;-68
2021/04/30 01:05:22;;;;;;;;;;;10.70;1.00;;;;;;5011041;28;20061;-68
2021/04/30 01:07:48;;;;;;;;;;;10.70;1.00;;;;;;5009984;28;19920;-67
2021/04/30 01:10:14;;;;;;;;;;;10.70;1.00;;;;;;5009896;28;20020;-68
2021/04/30 01:12:40;;;;;;;;;;;10.70;1.00;;;;;;5010961;28;19909;-68
2021/04/30 01:15:06;;;;;;;;;;;10.70;1.00;;;;;;5011573;28;20362;-68
2021/04/30 01:17:33;;;;;;;;;;;10.70;1.00;;;;;;5010733;28;19913;-68
2021/04/30 01:19:58;;;;;;;;;;;10.60;1.00;;;;;;5024418;28;19910;-69
2021/04/30 01:22:30;;;;;;;;;;;10.60;1.00;;;;;;5009672;28;19913;-69
2021/04/30 01:24:55;;;;;;;;;;;10.60;1.00;;;;;;5010641;28;19956;-70
2021/04/30 01:27:21;;;;;;;;;;;10.60;1.00;;;;;;5010685;28;20390;-69
2021/04/30 01:29:46;;;;;;;;;;;10.60;1.00;;;;;;5010402;28;19916;-69
2021/04/30 01:32:12;;;;;;;;;;;10.50;1.00;;;;;;5010256;28;20290;-70
2021/04/30 01:34:37;;;;;;;;;;;10.60;1.00;;;;;;5009788;28;19914;-70
2021/04/30 01:37:03;;;;;;;;;;;10.60;1.00;;;;;;5009915;28;19913;-69
2021/04/30 01:39:28;;;;;;;;;;;10.50;1.00;;;;;;5009729;28;19924;-68
2021/04/30 01:41:54;;;;;;;;;;;10.60;1.00;;;;;;5010621;28;20243;-68
2021/04/30 01:44:19;;;;;;;;;;;10.50;1.00;;;;;;5009818;28;19960;-68
2021/04/30 01:46:45;;;;;;;;;;;10.40;1.00;;;;;;5010328;28;20337;-68
2021/04/30 01:49:10;;;;;;;;;;;10.40;1.00;;;;;;5009341;28;19916;-70
2021/04/30 01:51:36;;;;;;;;;;;10.40;1.00;;;;;;5009861;28;20334;-68
2021/04/30 01:54:05;;;;;;;;;;;10.40;1.00;;;;;;5006904;28;20377;-69
2021/04/30 01:56:31;;;;;;;;;;;10.30;1.00;;;;;;5009858;28;20019;-69
2021/04/30 01:58:56;;;;;;;;;;;10.30;1.00;;;;;;5009051;28;20000;-69
2021/04/30 02:01:22;;;;;;;;;;;10.30;1.00;;;;;;5008515;28;19914;-69
2021/04/30 02:03:48;;;;;;;;;;;10.40;1.00;;;;;;5008927;28;19909;-68
2021/04/30 02:06:13;;;;;;;;;;;10.40;1.00;;;;;;5010372;28;19924;-68
2021/04/30 02:08:39;;;;;;;;;;;10.30;1.00;;;;;;5008967;28;20579;-69
2021/04/30 02:11:04;;;;;;;;;;;10.40;1.00;;;;;;5009723;28;19916;-68
2021/04/30 02:13:30;;;;;;;;;;;10.30;1.00;;;;;;5009994;28;19910;-70
2021/04/30 02:15:55;;;;;;;;;;;10.30;1.00;;;;;;5010157;28;20235;-69
2021/04/30 02:18:22;;;;;;;;;;;10.40;1.00;;;;;;5009424;28;19914;-68
2021/04/30 02:20:47;;;;;;;;;;;10.30;1.00;;;;;;5009371;28;19968;-68
2021/04/30 02:23:13;;;;;;;;;;;10.30;1.00;;;;;;5009184;28;19913;-69
2021/04/30 02:25:39;;;;;;;;;;;10.30;1.00;;;;;;5010177;28;20000;-69
2021/04/30 02:28:04;;;;;;;;;;;10.30;1.00;;;;;;5009962;28;20337;-69
2021/04/30 02:30:31;;;;;;;;;;;10.20;1.00;;;;;;5008790;28;19909;-69
2021/04/30 02:32:57;;;;;;;;;;;10.10;1.00;;;;;;5010305;28;20020;-68
2021/04/30 02:35:27;;;;;;;;;;;10.10;1.00;;;;;;5011057;28;20386;-67
2021/04/30 02:37:52;;;;;;;;;;;10.10;1.00;;;;;;5011200;28;19997;-70
2021/04/30 02:40:21;;;;;;;;;;;10.00;1.00;;;;;;5010821;28;20024;-67
2021/04/30 02:42:46;;;;;;;;;;;10.10;1.00;;;;;;5012114;28;19941;-68
2021/04/30 02:45:13;;;;;;;;;;;10.10;1.00;;;;;;5010817;28;20283;-70
2021/04/30 02:47:40;;;;;;;;;;;10.10;1.00;;;;;;5012029;28;20317;-66
2021/04/30 02:50:06;;;;;;;;;;;10.00;1.00;;;;;;5010720;28;20255;-70
2021/04/30 02:52:32;;;;;;;;;;;10.00;1.00;;;;;;5018245;28;19910;-68
2021/04/30 02:54:57;;;;;;;;;;;10.00;1.00;;;;;;5011646;28;19910;-69
2021/04/30 02:57:24;;;;;;;;;;;10.00;1.00;;;;;;5012380;28;19929;-69
2021/04/30 02:59:50;;;;;;;;;;;9.90;1.00;;;;;;5011878;28;19967;-67
2021/04/30 03:02:16;;;;;;;;;;;9.90;1.00;;;;;;5010685;28;20008;-69
2021/04/30 03:04:41;;;;;;;;;;;9.90;1.00;;;;;;5010634;28;19948;-68
2021/04/30 03:07:07;;;;;;;;;;;9.90;1.00;;;;;;5011737;28;19913;-68
2021/04/30 03:09:33;;;;;;;;;;;9.80;1.00;;;;;;5011678;28;19913;-68
2021/04/30 03:11:59;;;;;;;;;;;9.80;1.00;;;;;;5012032;28;19909;-68
2021/04/30 03:14:24;;;;;;;;;;;9.80;1.00;;;;;;5012432;28;20021;-67
2021/04/30 03:16:50;;;;;;;;;;;9.80;1.00;;;;;;5015413;28;19913;-67
2021/04/30 03:19:16;;;;;;;;;;;9.80;1.00;;;;;;5014660;28;19949;-69
2021/04/30 03:21:41;;;;;;;;;;;9.80;1.00;;;;;;5015992;28;19910;-69
2021/04/30 03:24:07;;;;;;;;;;;9.80;1.00;;;;;;5015673;28;19910;-67
2021/04/30 03:26:33;;;;;;;;;;;9.80;1.00;;;;;;5015741;28;19909;-67
2021/04/30 03:28:58;;;;;;;;;;;9.90;1.00;;;;;;5013501;28;19917;-67
2021/04/30 03:31:24;;;;;;;;;;;9.90;1.00;;;;;;5016010;28;19996;-69
2021/04/30 03:33:50;;;;;;;;;;;9.80;1.00;;;;;;5015751;28;20054;-67
2021/04/30 03:36:15;;;;;;;;;;;9.80;1.00;;;;;;5015449;28;19910;-68
2021/04/30 03:38:41;;;;;;;;;;;9.70;1.00;;;;;;5014539;28;20016;-69
2021/04/30 03:41:06;;;;;;;;;;;9.70;1.00;;;;;;5014045;28;19909;-67
2021/04/30 03:43:32;;;;;;;;;;;9.60;1.00;;;;;;5014301;28;19909;-68
2021/04/30 03:45:58;;;;;;;;;;;9.60;1.00;;;;;;5015184;28;19996;-68
2021/04/30 03:48:25;;;;;;;;;;;9.60;1.00;;;;;;5013511;28;19956;-67
2021/04/30 03:50:50;;;;;;;;;;;9.50;1.00;;;;;;5013508;28;20276;-67
2021/04/30 03:53:16;;;;;;;;;;;9.50;1.00;;;;;;5013197;28;19913;-67
2021/04/30 03:55:42;;;;;;;;;;;9.30;1.00;;;;;;5016053;28;19917;-68
2021/04/30 03:58:07;;;;;;;;;;;9.40;1.00;;;;;;5013416;28;19917;-68
2021/04/30 04:00:33;;;;;;;;;;;9.40;1.00;;;;;;5014210;28;20293;-70
2021/04/30 04:02:58;;;;;;;;;;;9.40;1.00;;;;;;5031231;28;19910;-68
2021/04/30 04:05:24;;;;;;;;;;;9.50;1.00;;;;;;5015111;28;19986;-68
2021/04/30 04:07:49;;;;;;;;;;;9.50;1.00;;;;;;5015883;28;19928;-69
2021/04/30 04:10:15;;;;;;;;;;;9.50;1.00;;;;;;5014210;28;19909;-69
2021/04/30 04:12:41;;;;;;;;;;;9.50;1.00;;;;;;5013718;28;20337;-67
2021/04/30 04:15:07;;;;;;;;;;;9.40;1.00;;;;;;5013103;28;19944;-67
2021/04/30 04:17:32;;;;;;;;;;;9.50;1.00;;;;;;5014038;28;19932;-68
2021/04/30 04:19:58;;;;;;;;;;;9.50;1.00;;;;;;5013502;28;20008;-68
2021/04/30 04:22:23;;;;;;;;;;;9.50;1.00;;;;;;5012463;28;20324;-68
2021/04/30 04:24:49;;;;;;;;;;;9.50;1.00;;;;;;5013018;28;20004;-67
2021/04/30 04:27:15;;;;;;;;;;;9.50;1.00;;;;;;5012944;28;19916;-66
2021/04/30 04:29:40;;;;;;;;;;;9.50;1.00;;;;;;5011775;28;19909;-69
2021/04/30 04:32:06;;;;;;;;;;;9.60;1.00;;;;;;5013037;28;20359;-68
2021/04/30 04:34:32;;;;;;;;;;;9.50;1.00;;;;;;5012465;28;20287;-68
2021/04/30 04:36:57;;;;;;;;;;;9.60;1.00;;;;;;5008975;28;19940;-70
2021/04/30 04:39:25;;;;;;;;;;;9.50;1.00;;;;;;5010748;28;20024;-67
2021/04/30 04:41:51;;;;;;;;;;;9.60;1.00;;;;;;5013122;28;20337;-68
2021/04/30 04:44:16;;;;;;;;;;;9.60;1.00;;;;;;5012760;28;19909;-67
2021/04/30 04:46:42;;;;;;;;;;;9.60;1.00;;;;;;5013133;28;19909;-67
2021/04/30 04:49:07;;;;;;;;;;;9.60;1.00;;;;;;5010411;28;20390;-68
2021/04/30 04:51:33;;;;;;;;;;;9.60;1.00;;;;;;5008638;28;19929;-69
2021/04/30 04:53:58;;;;;;;;;;;9.60;1.00;;;;;;5013017;28;19914;-68
2021/04/30 04:56:26;;;;;;;;;;;9.60;1.00;;;;;;5014035;28;19987;-69
2021/04/30 04:58:54;;;;;;;;;;;9.60;1.00;;;;;;5010640;28;19924;-69
2021/04/30 05:01:20;;;;;;;;;;;9.60;1.00;;;;;;5009515;28;19999;-69
2021/04/30 05:03:46;;;;;;;;;;;9.60;1.00;;;;;;5011690;28;19914;-68
2021/04/30 05:06:12;;;;;;;;;;;9.50;1.00;;;;;;5012758;28;19921;-69
2021/04/30 05:08:37;;;;;;;;;;;9.40;1.00;;;;;;5010909;28;19964;-70
2021/04/30 05:11:04;;;;;;;;;;;9.20;1.00;;;;;;5011560;28;19925;-69
2021/04/30 05:13:30;;;;;;;;;;;9.30;1.00;;;;;;5013071;28;19917;-68
2021/04/30 05:15:55;;;;;;;;;;;9.30;1.00;;;;;;5016559;28;19910;-69
2021/04/30 05:18:21;;;;;;;;;;;9.40;1.00;;;;;;5013297;28;20223;-68
2021/04/30 05:20:46;;;;;;;;;;;9.50;1.00;;;;;;5020773;28;19917;-69
2021/04/30 05:23:12;;;;;;;;;;;9.50;1.00;;;;;;5030990;28;19923;-68
2021/04/30 05:25:37;;;;;;;;;;;9.60;1.00;;;;;;5033435;28;19919;-70
2021/04/30 05:28:03;;;;;;;;;;;9.70;1.00;;;;;;5032738;28;19924;-67
2021/04/30 05:30:28;;;;;;;;;;;9.70;1.00;;;;;;5032723;28;19968;-71
2021/04/30 05:32:54;;;;;;;;;;;9.80;1.00;;;;;;5033258;28;20338;-73
2021/04/30 05:35:19;;;;;;;;;;;9.90;1.00;;;;;;5031121;28;20023;-70
2021/04/30 05:37:45;;;;;;;;;;;9.80;1.00;;;;;;5029114;28;19917;-71
2021/04/30 05:40:11;;;;;;;;;;;9.90;1.00;;;;;;5020035;28;19912;-70
2021/04/30 05:42:36;;;;;;;;;;;9.80;1.00;;;;;;5032306;28;19920;-70
2021/04/30 05:45:02;;;;;;;;;;;9.80;1.00;;;;;;5019419;28;19919;-70
2021/04/30 05:47:27;;;;;;;;;;;9.80;1.00;;;;;;5016800;28;19943;-70
2021/04/30 05:49:53;;;;;;;;;;;9.80;1.00;;;;;;5029135;28;19971;-71
2021/04/30 05:52:18;;;;;;;;;;;9.70;1.00;;;;;;5024584;28;19935;-69
2021/04/30 05:54:44;;;;;;;;;;;9.80;1.00;;;;;;5031083;28;19932;-69
2021/04/30 05:57:09;;;;;;;;;;;9.80;1.00;;;;;;5017288;28;20409;-69
2021/04/30 05:59:35;;;;;;;;;;;9.80;1.00;;;;;;5031782;28;19924;-70
2021/04/30 06:02:00;;;;;;;;;;;9.80;1.00;;;;;;5031871;28;20306;-70
2021/04/30 06:04:26;;;;;;;;;;;9.90;1.00;;;;;;5032319;28;20000;-69
2021/04/30 06:06:52;;;;;;;;;;;10.10;1.00;;;;;;5032730;28;19913;-69
2021/04/30 06:09:18;;;;;;;;;;;10.10;1.00;;;;;;5030073;28;19921;-69
2021/04/30 06:11:43;;;;;;;;;;;10.10;1.00;;;;;;5029154;28;19913;-69
2021/04/30 06:14:10;;;;;;;;;;;10.00;1.00;;;;;;5030412;28;20012;-69
2021/04/30 06:16:35;;;;;;;;;;;10.00;1.00;;;;;;5031529;28;19986;-69
2021/04/30 06:19:02;;;;;;;;;;;10.00;1.00;;;;;;5030022;28;20398;-69
2021/04/30 06:21:27;;;;;;;;;;;10.00;1.00;;;;;;5030852;28;19932;-71
2021/04/30 06:23:53;;;;;;;;;;;9.90;1.00;;;;;;5029938;28;20352;-69
2021/04/30 06:26:19;;;;;;;;;;;9.80;1.00;;;;;;5030439;28;20253;-70
2021/04/30 06:28:44;;;;;;;;;;;9.90;1.00;;;;;;5030411;28;20058;-69
2021/04/30 06:31:10;;;;;;;;;;;10.10;1.00;;;;;;5031749;28;19983;-70
2021/04/30 06:33:35;;;;;;;;;;;10.20;1.00;;;;;;5031939;28;20376;-69
2021/04/30 06:36:01;;;;;;;;;;;10.30;1.00;;;;;;5032411;28;20359;-69
2021/04/30 06:38:26;;;;;;;;;;;10.50;1.00;;;;;;5030774;28;19917;-69
2021/04/30 06:40:52;;;;;;;;;;;10.80;1.00;;;;;;5032087;28;19913;-69
2021/04/30 06:43:17;;;;;;;;;;;10.90;1.00;;;;;;5032643;28;19916;-70
2021/04/30 06:45:43;;;;;;;;;;;11.20;1.00;;;;;;5030917;28;19964;-70
2021/04/30 06:48:09;;;;;;;;;;;11.20;1.00;;;;;;5032281;28;19909;-70
2021/04/30 06:50:34;;;;;;;;;;;11.10;1.00;;;;;;5053805;22;19959;-73
2021/04/30 06:53:00;;;;;;;;;;;11.10;1.00;;;;;;5035108;28;20618;-70
2021/04/30 06:55:25;;;;;;;;;;;11.10;1.00;;;;;;5029207;28;20391;-71
2021/04/30 06:57:51;;;;;;;;;;;11.00;1.00;;;;;;5035025;28;19940;-71
2021/04/30 07:00:17;;;;;;;;;;;10.90;1.00;;;;;;5040883;28;19910;-71
2021/04/30 07:02:43;;;;;;;;;;;10.90;1.00;;;;;;5014038;28;19921;-70
2021/04/30 07:05:09;;;;;;;;;;;11.10;1.00;;;;;;5019024;28;19917;-71
2021/04/30 07:07:34;;;;;;;;;;;11.60;1.00;;;;;;5028448;28;19929;-70
2021/04/30 07:10:00;;;;;;;;;;;12.60;1.00;;;;;;5021253;28;19913;-71
2021/04/30 07:12:26;;;;;;;;;;;14.10;1.00;;;;;;5025405;28;19944;-71
2021/04/30 07:14:51;;;;;;;;;;;15.70;1.00;;;;;;5028851;28;19921;-71
2021/04/30 07:17:17;;;;;;;;;;;17.30;1.00;;;;;;5028629;28;20003;-71
2021/04/30 07:19:42;;;;;;;;;;;18.10;1.00;;;;;;5027316;28;19991;-71
2021/04/30 07:22:10;;;;;;;;;;;18.30;1.00;;;;;;5027899;28;20493;-71
2021/04/30 07:24:36;;;;;;;;;;;17.90;1.00;;;;;;5028248;28;19932;-71
2021/04/30 07:27:01;;;;;;;;;;;16.80;1.00;;;;;;5025459;28;20581;-72
2021/04/30 07:29:27;;;;;;;;;;;16.50;1.00;;;;;;5028030;28;20000;-71
2021/04/30 07:31:55;;;;;;;;;;;15.90;1.00;;;;;;5028548;28;19965;-71
2021/04/30 07:34:21;;;;;;;;;;;15.60;1.00;;;;;;5028345;28;19913;-71
2021/04/30 07:36:46;;;;;;;;;;;15.50;1.00;;;;;;5027308;28;19924;-71
2021/04/30 07:39:12;;;;;;;;;;;15.20;1.00;;;;;;5011178;28;19940;-71
2021/04/30 07:41:37;;;;;;;;;;;15.30;1.00;;;;;;5013749;28;19920;-70
2021/04/30 07:44:03;;;;;;;;;;;15.40;1.00;;;;;;5015233;28;19913;-71
2021/04/30 07:46:28;;;;;;;;;;;15.80;1.00;;;;;;5013544;28;20386;-70
2021/04/30 07:48:54;;;;;;;;;;;16.40;1.00;;;;;;5027494;28;19917;-69
2021/04/30 07:51:19;;;;;;;;;;;17.30;1.00;;;;;;5027940;28;20377;-70
2021/04/30 07:53:45;;;;;;;;;;;18.70;1.00;;;;;;5021529;28;19972;-70
2021/04/30 07:56:10;;;;;;;;;;;19.50;1.00;;;;;;5014244;28;19957;-70
2021/04/30 07:58:37;;;;;;;;;;;20.60;1.00;;;;;;5014983;28;19953;-70
2021/04/30 08:01:03;;;;;;;;;;;;;;;;;;5013071;28;20028;-70
2021/04/30 08:03:29;;;;;;;;;;;;;;;;;;5013849;28;20406;-70
2021/04/30 08:05:55;;;;;;;;;;;;;;;;;;5013954;28;19996;-70
2021/04/30 08:08:21;;;;;;;;;;;;;;;;;;5020927;28;19917;-72
2021/04/30 08:10:47;;;;;;;;;;;;;;;;;;5031058;28;19924;-71
2021/04/30 08:13:12;;;;;;;;;;;27.60;99.90;;;;;;5031670;28;19913;-71
2021/04/30 08:15:38;;;;;;;;;;;28.00;99.90;;;;;;5032472;28;20016;-72
2021/04/30 08:18:04;;;;;;;;;;;29.10;99.90;;;;;;5031457;28;19971;-71
2021/04/30 08:20:29;;;;;;;;;;;30.00;99.90;;;;;;5030012;28;19985;-72
2021/04/30 08:22:55;;;;;;;;;;;29.70;97.90;;;;;;5030530;28;19917;-71
2021/04/30 08:25:21;;;;;;;;;;;31.30;94.10;;;;;;5030514;28;19921;-72
2021/04/30 08:27:47;;;;;;;;;;;31.20;87.00;;;;;;5025717;28;21625;-71
2021/04/30 08:30:13;;;;;;;;;;;30.20;70.70;;;;;;5015497;28;19949;-71
2021/04/30 08:32:39;;;;;;;;;;;28.70;56.00;;;;;;5015679;28;19917;-71
2021/04/30 08:35:05;;;;;;;;;;;28.20;49.40;;;;;;5022877;28;19917;-71
2021/04/30 08:37:30;;;;;;;;;;;28.80;47.10;;;;;;5027077;28;20441;-71
2021/04/30 08:39:57;;;;;;;;;;;30.50;46.20;;;;;;5022108;28;19913;-72
2021/04/30 08:42:23;;;;;;;;;;;30.60;39.70;;;;;;5013371;28;19917;-72
2021/04/30 08:44:49;;;;;;;;;;;30.50;33.00;;;;;;5021333;28;19932;-72
2021/04/30 08:47:15;;;;;;;;;;;30.00;27.20;;;;;;5024651;28;19913;-72
2021/04/30 08:49:40;;;;;;;;;;;31.50;27.10;;;;;;5029814;28;19982;-72
2021/04/30 08:52:06;;;;;;;;;;;32.90;25.00;;;;;;5029627;28;19983;-72
2021/04/30 08:54:31;;;;;;;;;;;33.90;21.60;;;;;;5029246;28;19913;-72
2021/04/30 08:57:00;;;;;;;;;;;32.70;14.80;;;;;;5030493;28;19968;-72
2021/04/30 08:59:26;;;;;;;;;;;32.00;9.80;;;;;;5029361;28;20545;-72
2021/04/30 09:01:53;;;;;;;;;;;31.80;5.70;;;;;;5030917;28;19957;-71
2021/04/30 09:04:18;;;;;;;;;;;30.60;1.00;;;;;;5029388;28;19913;-72
2021/04/30 09:06:45;;;;;;;;;;;29.00;1.00;;;;;;5025669;28;19928;-72
2021/04/30 09:09:11;;;;;;;;;;;29.40;1.00;;;;;;5024765;28;20276;-72
2021/04/30 09:11:38;;;;;;;;;;;30.70;1.00;;;;;;5029743;28;20374;-71
2021/04/30 09:14:23;;;;;;;;;;;29.70;1.00;;;;;;5026998;28;20358;-73
2021/04/30 09:17:02;;;;;;;;;;;27.70;1.00;;;;;;5018365;28;19929;-72
2021/04/30 09:19:28;;;;;;;;;;;25.70;1.00;;;;;;5020362;28;20012;-72
2021/04/30 09:21:57;;;;;;;;;;;24.40;1.00;;;;;;5013972;28;20290;-72
2021/04/30 09:24:24;;;;;;;;;;;23.80;1.00;;;;;;5013939;28;20022;-71
2021/04/30 09:26:49;;;;;;;;;;;;;;;;;;5030125;28;19921;-72
2021/04/30 09:29:15;;;;;;;;;;;22.60;1.00;;;;;;5028169;28;19917;-72
2021/04/30 09:31:42;;;;;;;;;;;21.80;1.00;;;;;;5029496;28;20309;-72
2021/04/30 09:34:26;;;;;;;;;;;21.80;1.00;;;;;;5030528;28;19924;-72
2021/04/30 09:37:10;;;;;;;;;;;21.40;1.00;;;;;;5022468;28;19925;-72
2021/04/30 09:39:48;;;;;;;;;;;21.60;1.00;;;;;;5015006;28;19921;-72
2021/04/30 09:42:16;;;;;;;;;;;22.10;1.00;;;;;;5014111;28;19949;-72
2021/04/30 09:44:43;;;;;;;;;;;23.30;1.00;;;;;;5015358;28;20346;-72
2021/04/30 09:47:15;;;;;;;;;;;24.50;1.00;;;;;;5011438;28;20012;-72
2021/04/30 09:49:41;;;;;;;;;;;26.90;1.00;;;;;;5010756;28;19957;-71
2021/04/30 09:52:08;;;;;;;;;;;26.40;1.00;;;;;;5013230;28;20000;-70
2021/04/30 09:54:34;;;;;;;;;;;23.90;1.00;;;;;;5012871;28;19920;-71
2021/04/30 09:57:04;;;;;;;;;;;23.10;1.00;;;;;;5015842;28;19925;-71
2021/04/30 09:59:30;;;;;;;;;;;22.90;1.00;;;;;;5028513;28;20585;-71
2021/04/30 10:02:07;;;;;;;;;;;23.70;1.00;;;;;;5028969;28;20011;-71
2021/04/30 10:04:34;;;;;;;;;;;25.10;1.00;;;;;;5028691;28;19917;-70
2021/04/30 10:07:00;;;;;;;;;;;26.30;1.00;;;;;;5028529;28;19917;-71
2021/04/30 10:09:27;;;;;;;;;;;27.00;1.00;;;;;;5028084;28;19917;-71
2021/04/30 10:11:53;;;;;;;;;;;27.60;1.00;;;;;;5028972;28;19983;-70
2021/04/30 10:14:19;;;;;;;;;;;26.90;1.00;;;;;;5028839;28;20031;-71
2021/04/30 10:16:44;;;;;;;;;;;26.40;1.00;;;;;;5029054;28;20000;-70
2021/04/30 10:19:10;;;;;;;;;;;26.00;1.00;;;;;;5028053;28;20384;-69
2021/04/30 10:21:39;;;;;;;;;;;24.80;1.00;;;;;;5028502;28;19913;-70
2021/04/30 10:24:07;;;;;;;;;;;24.50;1.00;;;;;;5026347;28;20459;-70
2021/04/30 10:26:33;;;;;;;;;;;25.30;1.00;;;;;;5015817;28;20254;-70
2021/04/30 10:29:01;;;;;;;;;;;25.30;1.00;;;;;;5018954;28;19928;-69
2021/04/30 10:31:28;;;;;;;;;;;24.80;1.00;;;;;;5027680;28;19929;-70
2021/04/30 10:33:57;;;;;;;;;;;24.80;1.00;;;;;;5029493;28;19913;-70
2021/04/30 10:36:23;;;;;;;;;;;24.30;1.00;;;;;;5025562;28;19917;-69
2021/04/30 10:38:50;;;;;;;;;;;24.80;1.00;;;;;;5013123;28;19927;-70
2021/04/30 10:41:26;;;;;;;;;;;26.00;1.00;;;;;;5014021;28;19940;-70
2021/04/30 10:44:10;;;;;;;;;;;26.30;1.00;;;;;;5009000;28;20524;-71
2021/04/30 10:46:35;;;;;;;;;;;25.70;1.00;;;;;;5012150;28;20003;-70
2021/04/30 10:49:01;;;;;;;;;;;25.20;1.00;;;;;;5013156;28;20653;-70
2021/04/30 10:51:26;;;;;;;;;;;25.10;1.00;;;;;;5012076;28;19917;-70
2021/04/30 10:53:51;;;;;;;;;;;26.00;1.00;;;;;;5019814;28;19913;-70
2021/04/30 10:56:33;;;;;;;;;;;26.20;1.00;;;;;;5026600;28;20426;-71
2021/04/30 10:58:59;;;;;;;;;;;26.00;1.00;;;;;;5012934;28;19925;-71
2021/04/30 11:01:33;;;;;;;;;;;26.60;1.00;;;;;;5011345;28;19968;-71
2021/04/30 11:04:08;;;;;;;;;;;26.70;1.00;;;;;;5010950;28;19924;-70
2021/04/30 11:06:34;;;;;;;;;;;26.10;1.00;;;;;;5012146;28;19913;-71
2021/04/30 11:09:04;;;;;;;;;;;26.40;1.00;;;;;;5013072;28;19921;-71
2021/04/30 11:11:31;;;;;;;;;;;27.50;1.00;;;;;;5013573;28;19928;-71
2021/04/30 11:14:15;;;;;;;;;;;27.00;1.00;;;;;;5011452;28;20044;-70
2021/04/30 11:16:40;;;;;;;;;;;26.30;1.00;;;;;;5012434;28;19913;-71
2021/04/30 11:19:06;;;;;;;;;;;27.00;1.00;;;;;;5014125;28;19925;-71
2021/04/30 11:21:45;;;;;;;;;;;27.70;1.00;;;;;;5012353;28;19915;-71
2021/04/30 11:24:26;;;;;;;;;;;27.70;1.00;;;;;;5017595;28;19914;-71
2021/04/30 11:27:07;;;;;;;;;;;26.40;1.00;;;;;;5011021;28;20412;-71
2021/04/30 11:29:32;;;;;;;;;;;25.80;1.00;;;;;;5010292;28;19913;-70
2021/04/30 11:32:17;;;;;;;;;;;25.90;1.00;;;;;;5011917;28;19919;-71
2021/04/30 11:35:08;;;;;;;;;;;26.20;1.00;;;;;;5015272;28;20026;-71
2021/04/30 11:37:34;;;;;;;;;;;25.90;1.00;;;;;;5011921;28;19924;-71
2021/04/30 11:40:00;;;;;;;;;;;25.10;1.00;;;;;;5016257;28;20321;-70
2021/04/30 11:42:30;;;;;;;;;;;25.20;1.00;;;;;;5018484;28;19913;-70
2021/04/30 11:44:55;;;;;;;;;;;25.60;1.00;;;;;;5018988;28;20444;-71
2021/04/30 11:47:27;;;;;;;;;;;25.90;1.00;;;;;;5021345;28;19917;-71
2021/04/30 11:49:53;;;;;;;;;;;26.00;1.00;;;;;;5015046;28;19913;-71
2021/04/30 11:52:26;;;;;;;;;;;26.10;1.00;;;;;;5013179;28;20076;-70
2021/04/30 11:54:59;;;;;;;;;;;25.80;1.00;;;;;;5017887;28;19913;-71
2021/04/30 11:57:25;;;;;;;;;;;25.40;1.00;;;;;;5018102;28;19921;-71
2021/04/30 11:59:51;;;;;;;;;;;25.00;1.00;;;;;;5018177;28;19913;-71
2021/04/30 12:02:18;;;;;;;;;;;25.00;1.00;;;;;;5016323;28;19917;-70
2021/04/30 12:04:45;;;;;;;;;;;24.80;1.00;;;;;;5019532;28;20362;-71
2021/04/30 12:07:13;;;;;;;;;;;25.00;1.00;;;;;;5030416;28;21380;-71
2021/04/30 12:09:38;;;;;;;;;;;24.80;1.00;;;;;;5030358;28;20019;-71
2021/04/30 12:12:10;;;;;;;;;;;24.90;1.00;;;;;;5031158;28;19993;-71
2021/04/30 12:14:49;;;;;;;;;;;25.00;1.00;;;;;;5031218;28;19917;-71
2021/04/30 12:17:21;;;;;;;;;;;25.00;1.00;;;;;;5030738;28;19917;-71
2021/04/30 12:19:57;;;;;;;;;;;24.80;1.00;;;;;;5030561;28;19925;-71
2021/04/30 12:22:22;;;;;;;;;;;24.70;1.00;;;;;;5028170;28;20358;-71
2021/04/30 12:24:48;;;;;;;;;;;24.80;1.00;;;;;;5030469;28;19928;-71
2021/04/30 12:27:29;;;;;;;;;;;24.40;1.00;;;;;;5028956;28;19913;-71
2021/04/30 12:29:55;;;;;;;;;;;24.10;1.00;;;;;;5029631;28;19924;-71
2021/04/30 12:32:27;;;;;;;;;;;24.50;1.00;;;;;;5031309;28;20436;-71
2021/04/30 12:34:56;;;;;;;;;;;24.40;1.00;;;;;;5023095;28;20001;-71
2021/04/30 12:37:23;;;;;;;;;;;24.10;1.00;;;;;;5025650;28;20027;-71
2021/04/30 12:39:48;;;;;;;;;;;23.40;1.00;;;;;;5025145;28;20405;-71
2021/04/30 12:42:14;;;;;;;;;;;22.60;1.00;;;;;;5018314;28;20016;-71
2021/04/30 12:44:50;;;;;;;;;;;22.00;1.00;;;;;;5014133;28;19960;-71
2021/04/30 12:47:16;;;;;;;;;;;21.50;1.00;;;;;;5012311;28;19937;-71
2021/04/30 12:49:41;;;;;;;;;;;21.10;1.00;;;;;;5011993;28;19941;-71
2021/04/30 12:52:07;;;;;;;;;;;20.80;1.00;;;;;;5013922;28;19933;-71
2021/04/30 12:54:33;;;;;;;;;;;20.60;1.00;;;;;;5019892;28;19967;-71
2021/04/30 12:57:00;;;;;;;;;;;20.70;1.00;;;;;;5027340;28;20020;-71
2021/04/30 12:59:26;;;;;;;;;;;20.90;1.00;;;;;;5030367;28;19913;-70
2021/04/30 13:01:53;;;;;;;;;;;20.50;1.00;;;;;;5030614;28;20433;-71
2021/04/30 13:04:22;;;;;;;;;;;20.50;1.00;;;;;;5030588;28;19966;-70
2021/04/30 13:06:48;;;;;;;;;;;20.30;1.00;;;;;;5029821;28;20305;-71
2021/04/30 13:09:15;;;;;;;;;;;20.10;1.00;;;;;;5029396;28;19957;-70
2021/04/30 13:11:41;;;;;;;;;;;19.70;1.00;;;;;;5030700;28;19924;-71
2021/04/30 13:14:08;;;;;;;;;;;19.70;1.00;;;;;;5030199;28;19917;-70
2021/04/30 13:16:33;;;;;;;;;;;19.40;1.00;;;;;;5030408;28;19921;-71
2021/04/30 13:19:06;;;;;;;;;;;19.20;1.00;;;;;;5029656;28;19921;-71
2021/04/30 13:21:33;;;;;;;;;;;18.60;1.00;;;;;;5029860;28;19913;-71
2021/04/30 13:24:10;;;;;;;;;;;18.40;1.00;;;;;;5029908;28;19937;-70
2021/04/30 13:26:36;;;;;;;;;;;17.70;1.00;;;;;;5030535;28;19920;-71
2021/04/30 13:29:12;;;;;;;;;;;17.50;99.90;;;;;;5029768;28;19913;-71
2021/04/30 13:31:37;;;;;;;;;;;17.20;99.90;;;;;;5016074;28;19967;-70
2021/04/30 13:34:04;;;;;;;;;;;16.90;99.90;;;;;;5030390;28;20358;-70
2021/04/30 13:36:29;;;;;;;;;;;17.00;99.90;;;;;;5029684;28;19913;-70
2021/04/30 13:38:58;;;;;;;;;;;17.10;99.90;;;;;;5028820;28;19971;-70
2021/04/30 13:41:33;;;;;;;;;;;17.00;99.90;;;;;;5029855;28;19959;-70
2021/04/30 13:44:13;;;;;;;;;;;16.70;99.90;;;;;;5030408;28;20341;-71
2021/04/30 13:46:46;;;;;;;;;;;16.40;99.90;;;;;;5017124;28;19917;-70
2021/04/30 13:49:11;;;;;;;;;;;15.70;99.90;;;;;;5028473;28;20016;-70
2021/04/30 13:51:37;;;;;;;;;;;15.20;99.90;;;;;;5029080;28;20032;-70
2021/04/30 13:54:03;;;;;;;;;;;15.10;99.90;;;;;;5027851;28;19925;-71
2021/04/30 13:56:28;;;;;;;;;;;14.80;99.90;;;;;;5029452;28;19921;-71
2021/04/30 13:59:01;;;;;;;;;;;14.50;99.90;;;;;;5028527;28;20047;-71
2021/04/30 14:01:27;;;;;;;;;;;14.00;99.90;;;;;;5013662;28;19958;-71
2021/04/30 14:03:52;;;;;;;;;;;13.80;99.90;;;;;;5029028;28;19996;-71
2021/04/30 14:06:18;;;;;;;;;;;13.70;99.90;;;;;;5029302;28;19939;-71
2021/04/30 14:08:43;;;;;;;;;;;13.50;99.90;;;;;;5028717;28;19913;-70
2021/04/30 14:11:09;;;;;;;;;;;13.40;99.90;;;;;;5026648;28;20009;-70
2021/04/30 14:13:34;;;;;;;;;;;13.20;99.90;;;;;;5029399;28;20015;-71
2021/04/30 14:16:00;;;;;;;;;;;13.10;99.90;;;;;;5029671;28;20262;-70
2021/04/30 14:18:25;;;;;;;;;;;13.00;99.90;;;;;;5028681;28;19917;-70
2021/04/30 14:20:51;;;;;;;;;;;12.90;99.90;;;;;;5028308;28;20019;-70
2021/04/30 14:23:16;;;;;;;;;;;12.70;99.90;;;;;;5028202;28;20029;-70
2021/04/30 14:25:43;;;;;;;;;;;12.40;99.90;;;;;;5029637;28;20336;-71
2021/04/30 14:28:09;;;;;;;;;;;12.40;1.00;;;;;;5028782;28;19925;-70
2021/04/30 14:30:35;;;;;;;;;;;12.20;1.00;;;;;;5026346;28;19944;-70
2021/04/30 14:33:02;;;;;;;;;;;12.10;1.00;;;;;;5002212;28;19996;-71